createdAt,value
2019-06-20T00:00:06.702Z,46.06
2019-06-20T00:01:06.695Z,46.78
2019-06-20T00:02:06.681Z,47.05
2019-06-20T00:03:06.671Z,46.95
2019-06-20T00:04:06.666Z,47.05
2019-06-20T00:05:06.644Z,46.56
2019-06-20T00:06:06.638Z,47.05
2019-06-20T00:07:06.640Z,46.66
2019-06-20T00:08:06.616Z,45.96
2019-06-20T00:09:06.606Z,47.05
2019-06-20T00:10:06.593Z,46.26
2019-06-20T00:11:06.593Z,47.16
2019-06-20T00:12:06.579Z,46.98
2019-06-20T00:13:06.564Z,46.98
2019-06-20T00:14:06.560Z,46.58
2019-06-20T00:15:06.535Z,47.28
2019-06-20T00:16:06.525Z,46.98
2019-06-20T00:17:06.513Z,47.47
2019-06-20T00:18:06.502Z,48.27
2019-06-20T00:19:06.504Z,48.17
2019-06-20T00:20:06.488Z,48.10
2019-06-20T00:21:06.470Z,46.80
2019-06-20T00:22:06.472Z,51.37
2019-06-20T00:23:06.450Z,53.81
2019-06-20T00:24:06.448Z,53.02
2019-06-20T00:25:06.446Z,62.99
2019-06-20T00:26:06.416Z,60.56
2019-06-20T00:27:06.445Z,69.06
2019-06-20T00:28:06.399Z,71.89
2019-06-20T00:29:06.389Z,68.73
2019-06-20T00:30:06.376Z,68.33
2019-06-20T00:31:06.368Z,66.17
2019-06-20T00:32:06.380Z,66.96
2019-06-20T00:33:06.339Z,67.57
2019-06-20T00:34:06.333Z,68.36
2019-06-20T00:35:06.332Z,66.36
2019-06-20T00:36:06.322Z,68.40
2019-06-20T00:37:06.308Z,66.00
2019-06-20T00:38:06.286Z,66.00
2019-06-20T00:39:06.279Z,67.69
2019-06-20T00:40:06.275Z,67.36
2019-06-20T00:41:06.269Z,67.99
2019-06-20T00:42:06.247Z,67.76
2019-06-20T00:43:16.851Z,68.40
2019-06-20T00:44:07.218Z,69.29
2019-06-20T00:45:06.232Z,68.66
2019-06-20T00:46:06.215Z,68.49
2019-06-20T00:47:06.188Z,68.49
2019-06-20T00:48:06.176Z,69.20
2019-06-20T00:49:06.172Z,71.69
2019-06-20T00:50:06.155Z,69.69
2019-06-20T00:51:06.148Z,68.40
2019-06-20T00:52:06.145Z,67.60
2019-06-20T00:53:06.120Z,68.99
2019-06-20T00:54:06.116Z,69.69
2019-06-20T00:55:06.107Z,70.49
2019-06-20T00:56:06.137Z,71.99
2019-06-20T00:57:06.085Z,73.55
2019-06-20T00:58:06.071Z,71.69
2019-06-20T00:59:06.057Z,71.79
2019-06-20T01:00:06.057Z,71.79
2019-06-20T01:01:06.038Z,70.39
2019-06-20T01:02:06.038Z,69.79
2019-06-20T01:03:06.018Z,68.49
2019-06-20T01:04:06.006Z,70.39
2019-06-20T01:05:05.997Z,70.16
2019-06-20T01:06:05.989Z,70.95
2019-06-20T01:07:05.992Z,70.09
2019-06-20T01:08:05.959Z,71.66
2019-06-20T01:09:05.948Z,72.25
2019-06-20T01:10:05.945Z,70.59
2019-06-20T01:11:05.934Z,72.05
2019-06-20T01:12:06.015Z,73.25
2019-06-20T01:13:05.908Z,70.36
2019-06-20T01:14:05.895Z,72.16
2019-06-20T01:15:05.892Z,71.99
2019-06-20T01:16:05.878Z,71.59
2019-06-20T01:17:05.872Z,71.69
2019-06-20T01:18:05.862Z,71.66
2019-06-20T01:19:05.843Z,70.59
2019-06-20T01:20:05.840Z,71.29
2019-06-20T01:21:05.816Z,71.39
2019-06-20T01:22:05.808Z,71.49
2019-06-20T01:23:05.810Z,70.49
2019-06-20T01:24:05.787Z,70.59
2019-06-20T01:25:05.774Z,70.46
2019-06-20T01:26:05.772Z,70.06
2019-06-20T01:27:05.751Z,70.46
2019-06-20T01:28:05.772Z,68.19
2019-06-20T01:29:05.731Z,67.49
2019-06-20T01:30:05.723Z,66.66
2019-06-20T01:31:05.715Z,65.87
2019-06-20T01:32:05.703Z,65.37
2019-06-20T01:33:05.693Z,65.26
2019-06-20T01:34:05.688Z,64.17
2019-06-20T01:35:05.669Z,64.87
2019-06-20T01:36:05.662Z,65.07
2019-06-20T01:37:05.644Z,64.67
2019-06-20T01:38:05.640Z,64.77
2019-06-20T01:39:05.635Z,63.27
2019-06-20T01:40:05.621Z,63.17
2019-06-20T01:41:06.317Z,63.67
2019-06-20T01:42:05.595Z,63.67
2019-06-20T01:43:05.583Z,63.77
2019-06-20T01:44:05.577Z,64.04
2019-06-20T01:45:05.566Z,63.87
2019-06-20T01:46:05.548Z,63.37
2019-06-20T01:47:05.537Z,63.37
2019-06-20T01:48:05.536Z,63.27
2019-06-20T01:49:05.543Z,62.74
2019-06-20T01:50:05.513Z,62.54
2019-06-20T01:51:05.505Z,62.57
2019-06-20T01:52:05.483Z,63.84
2019-06-20T01:53:05.476Z,63.34
2019-06-20T01:54:05.508Z,63.57
2019-06-20T01:55:05.461Z,63.14
2019-06-20T01:56:05.445Z,63.64
2019-06-20T01:57:05.426Z,63.64
2019-06-20T01:58:05.491Z,63.54
2019-06-20T01:59:05.415Z,63.64
2019-06-20T02:00:05.432Z,63.44
2019-06-20T02:01:05.384Z,63.84
2019-06-20T02:02:05.374Z,63.14
2019-06-20T02:03:05.363Z,63.74
2019-06-20T02:04:05.353Z,63.74
2019-06-20T02:05:05.354Z,63.74
2019-06-20T02:06:05.355Z,63.87
2019-06-20T02:07:05.385Z,63.77
2019-06-20T02:08:05.307Z,63.87
2019-06-20T02:09:05.302Z,63.74
2019-06-20T02:10:05.292Z,63.87
2019-06-20T02:11:05.293Z,64.67
2019-06-20T02:12:05.264Z,64.37
2019-06-20T02:13:05.259Z,64.17
2019-06-20T02:14:07.497Z,63.37
2019-06-20T02:15:05.264Z,63.57
2019-06-20T02:16:05.236Z,64.57
2019-06-20T02:17:05.232Z,64.47
2019-06-20T02:18:05.204Z,64.67
2019-06-20T02:19:05.195Z,65.17
2019-06-20T02:20:05.180Z,64.67
2019-06-20T02:21:05.179Z,64.87
2019-06-20T02:22:05.165Z,65.07
2019-06-20T02:23:05.160Z,64.67
2019-06-20T02:24:05.134Z,64.97
2019-06-20T02:25:05.132Z,64.37
2019-06-20T02:26:05.120Z,64.77
2019-06-20T02:27:05.123Z,65.07
2019-06-20T02:28:05.100Z,64.67
2019-06-20T02:29:05.086Z,64.80
2019-06-20T02:30:05.082Z,65.26
2019-06-20T02:31:05.065Z,65.47
2019-06-20T02:32:05.064Z,65.17
2019-06-20T02:33:05.059Z,64.87
2019-06-20T02:34:05.039Z,65.20
2019-06-20T02:35:05.018Z,64.87
2019-06-20T02:36:05.012Z,65.30
2019-06-20T02:37:05.000Z,65.00
2019-06-20T02:38:04.987Z,64.70
2019-06-20T02:39:05.000Z,64.80
2019-06-20T02:40:04.969Z,64.97
2019-06-20T02:41:04.965Z,65.30
2019-06-20T02:42:04.951Z,65.00
2019-06-20T02:43:04.960Z,66.09
2019-06-20T02:44:04.955Z,65.40
2019-06-20T02:45:04.924Z,65.20
2019-06-20T02:46:04.985Z,65.60
2019-06-20T02:47:04.923Z,65.40
2019-06-20T02:48:04.889Z,66.30
2019-06-20T02:49:04.873Z,66.20
2019-06-20T02:50:04.863Z,66.30
2019-06-20T02:51:04.851Z,66.09
2019-06-20T02:52:04.833Z,66.50
2019-06-20T02:53:04.839Z,65.90
2019-06-20T02:54:04.815Z,66.09
2019-06-20T02:55:04.801Z,66.60
2019-06-20T02:56:04.790Z,66.43
2019-06-20T02:57:04.786Z,66.13
2019-06-20T02:58:04.773Z,66.63
2019-06-20T02:59:04.771Z,66.60
2019-06-20T03:00:04.762Z,66.43
2019-06-20T03:01:04.746Z,66.43
2019-06-20T03:02:04.730Z,66.33
2019-06-20T03:03:04.729Z,66.03
2019-06-20T03:04:04.703Z,66.63
2019-06-20T03:05:04.696Z,67.23
2019-06-20T03:06:04.700Z,67.03
2019-06-20T03:07:04.677Z,67.36
2019-06-20T03:08:04.660Z,67.16
2019-06-20T03:09:04.660Z,67.13
2019-06-20T03:10:04.654Z,67.33
2019-06-20T03:11:04.634Z,67.83
2019-06-20T03:12:04.616Z,67.76
2019-06-20T03:13:04.607Z,67.76
2019-06-20T03:14:04.594Z,67.86
2019-06-20T03:15:04.610Z,67.72
2019-06-20T03:16:04.578Z,67.76
2019-06-20T03:17:04.574Z,67.56
2019-06-20T03:18:04.550Z,67.86
2019-06-20T03:19:04.552Z,68.06
2019-06-20T03:20:04.542Z,68.56
2019-06-20T03:21:04.523Z,68.66
2019-06-20T03:22:04.523Z,68.76
2019-06-20T03:23:04.528Z,69.06
2019-06-20T03:24:04.484Z,69.26
2019-06-20T03:25:04.486Z,68.86
2019-06-20T03:26:04.487Z,69.06
2019-06-20T03:27:04.462Z,68.86
2019-06-20T03:28:04.507Z,68.86
2019-06-20T03:29:04.436Z,69.16
2019-06-20T03:30:04.420Z,69.16
2019-06-20T03:31:04.418Z,68.96
2019-06-20T03:32:04.408Z,69.06
2019-06-20T03:33:04.398Z,69.26
2019-06-20T03:34:04.385Z,69.36
2019-06-20T03:35:04.364Z,69.23
2019-06-20T03:36:04.363Z,69.23
2019-06-20T03:37:04.356Z,69.13
2019-06-20T03:38:04.338Z,69.36
2019-06-20T03:39:04.322Z,70.42
2019-06-20T03:40:04.310Z,69.66
2019-06-20T03:41:04.305Z,69.96
2019-06-20T03:42:04.295Z,70.26
2019-06-20T03:43:04.290Z,69.86
2019-06-20T03:44:04.273Z,69.82
2019-06-20T03:45:04.265Z,70.16
2019-06-20T03:46:04.251Z,69.96
2019-06-20T03:47:04.249Z,70.26
2019-06-20T03:48:04.226Z,69.76
2019-06-20T03:49:04.218Z,69.82
2019-06-20T03:50:04.209Z,70.06
2019-06-20T03:51:04.203Z,70.26
2019-06-20T03:52:04.211Z,69.96
2019-06-20T03:53:11.899Z,70.03
2019-06-20T03:54:04.171Z,70.12
2019-06-20T03:55:04.156Z,69.86
2019-06-20T03:56:04.137Z,69.96
2019-06-20T03:57:04.131Z,70.06
2019-06-20T03:58:04.128Z,70.06
2019-06-20T03:59:04.104Z,70.16
2019-06-20T04:00:04.099Z,70.46
2019-06-20T04:01:04.085Z,70.26
2019-06-20T04:02:04.077Z,70.46
2019-06-20T04:03:04.068Z,70.23
2019-06-20T04:04:04.056Z,70.56
2019-06-20T04:05:04.040Z,70.83
2019-06-20T04:06:04.036Z,70.66
2019-06-20T04:07:04.018Z,70.62
2019-06-20T04:08:04.016Z,70.42
2019-06-20T04:09:03.996Z,70.32
2019-06-20T04:10:03.991Z,70.12
2019-06-20T04:11:03.978Z,69.93
2019-06-20T04:12:03.968Z,70.29
2019-06-20T04:13:03.966Z,69.59
2019-06-20T04:14:03.973Z,68.89
2019-06-20T04:15:17.867Z,68.79
2019-06-20T04:16:04.932Z,68.99
2019-06-20T04:17:03.967Z,69.09
2019-06-20T04:18:03.902Z,69.76
2019-06-20T04:19:03.894Z,70.09
2019-06-20T04:20:03.913Z,69.36
2019-06-20T04:21:03.873Z,69.06
2019-06-20T04:22:03.854Z,69.06
2019-06-20T04:23:03.857Z,68.86
2019-06-20T04:24:03.839Z,69.16
2019-06-20T04:25:03.830Z,68.46
2019-06-20T04:26:03.819Z,68.36
2019-06-20T04:27:03.806Z,68.56
2019-06-20T04:28:03.794Z,68.86
2019-06-20T04:29:03.799Z,68.56
2019-06-20T04:30:03.773Z,68.66
2019-06-20T04:31:03.759Z,68.76
2019-06-20T04:32:03.763Z,68.46
2019-06-20T04:33:03.736Z,68.46
2019-06-20T04:34:03.730Z,68.43
2019-06-20T04:35:03.733Z,68.33
2019-06-20T04:36:03.707Z,68.43
2019-06-20T04:37:03.698Z,68.33
2019-06-20T04:38:03.693Z,68.03
2019-06-20T04:39:18.350Z,67.96
2019-06-20T04:40:04.675Z,67.43
2019-06-20T04:41:03.654Z,67.36
2019-06-20T04:42:03.646Z,68.06
2019-06-20T04:43:03.626Z,68.06
2019-06-20T04:44:03.622Z,68.53
2019-06-20T04:45:03.611Z,68.76
2019-06-20T04:46:03.602Z,68.33
2019-06-20T04:47:03.583Z,68.43
2019-06-20T04:48:03.573Z,68.43
2019-06-20T04:49:03.567Z,68.43
2019-06-20T04:50:03.555Z,68.23
2019-06-20T04:51:03.566Z,68.43
2019-06-20T04:52:03.537Z,68.63
2019-06-20T04:53:03.517Z,68.83
2019-06-20T04:54:03.518Z,68.63
2019-06-20T04:55:03.515Z,68.83
2019-06-20T04:56:05.749Z,68.93
2019-06-20T04:57:03.513Z,68.33
2019-06-20T04:58:03.476Z,68.53
2019-06-20T04:59:03.483Z,67.83
2019-06-20T05:00:03.441Z,67.93
2019-06-20T05:01:03.435Z,67.80
2019-06-20T05:02:03.430Z,68.10
2019-06-20T05:03:03.416Z,67.90
2019-06-20T05:04:03.398Z,67.40
2019-06-20T05:05:03.386Z,66.80
2019-06-20T05:06:03.376Z,67.10
2019-06-20T05:07:03.370Z,67.47
2019-06-20T05:08:03.370Z,67.47
2019-06-20T05:09:03.378Z,67.36
2019-06-20T05:10:03.351Z,66.37
2019-06-20T05:11:03.324Z,66.57
2019-06-20T05:12:03.320Z,65.57
2019-06-20T05:13:03.298Z,65.57
2019-06-20T05:14:03.293Z,65.77
2019-06-20T05:15:03.297Z,66.37
2019-06-20T05:16:03.266Z,66.34
2019-06-20T05:17:07.015Z,66.67
2019-06-20T05:18:03.257Z,66.37
2019-06-20T05:19:03.234Z,66.83
2019-06-20T05:20:03.243Z,66.74
2019-06-20T05:21:03.245Z,65.74
2019-06-20T05:22:03.212Z,64.84
2019-06-20T05:23:03.190Z,65.54
2019-06-20T05:24:03.191Z,65.34
2019-06-20T05:25:03.180Z,65.05
2019-06-20T05:26:03.172Z,65.05
2019-06-20T05:27:03.147Z,64.84
2019-06-20T05:28:03.140Z,64.84
2019-06-20T05:29:05.415Z,64.72
2019-06-20T05:30:03.123Z,64.51
2019-06-20T05:31:03.118Z,64.31
2019-06-20T05:32:03.111Z,64.81
2019-06-20T05:33:03.093Z,63.98
2019-06-20T05:34:03.076Z,64.28
2019-06-20T05:35:03.353Z,64.58
2019-06-20T05:36:03.059Z,63.49
2019-06-20T05:37:03.057Z,63.66
2019-06-20T05:38:03.030Z,63.26
2019-06-20T05:39:03.023Z,64.15
2019-06-20T05:40:03.028Z,63.26
2019-06-20T05:41:03.004Z,62.96
2019-06-20T05:42:03.018Z,63.56
2019-06-20T05:43:03.036Z,63.46
2019-06-20T05:44:02.968Z,63.56
2019-06-20T05:45:02.971Z,63.53
2019-06-20T05:46:09.562Z,63.43
2019-06-20T05:47:12.390Z,63.95
2019-06-20T05:48:03.925Z,64.03
2019-06-20T05:49:02.907Z,62.86
2019-06-20T05:50:02.905Z,63.06
2019-06-20T05:51:02.890Z,64.55
2019-06-20T05:52:02.886Z,64.25
2019-06-20T05:53:02.874Z,63.85
2019-06-20T05:54:02.857Z,63.95
2019-06-20T05:55:02.848Z,63.95
2019-06-20T05:56:02.838Z,63.06
2019-06-20T05:57:04.551Z,63.46
2019-06-20T05:58:02.822Z,63.16
2019-06-20T05:59:02.797Z,63.16
2019-06-20T06:00:02.788Z,63.56
2019-06-20T06:01:02.774Z,63.76
2019-06-20T06:02:02.794Z,63.95
2019-06-20T06:03:06.808Z,64.25
2019-06-20T06:04:02.822Z,64.95
2019-06-20T06:05:02.736Z,64.36
2019-06-20T06:06:02.719Z,64.36
2019-06-20T06:07:02.721Z,64.28
2019-06-20T06:08:02.746Z,65.18
2019-06-20T06:09:02.687Z,65.31
2019-06-20T06:10:03.999Z,66.31
2019-06-20T06:11:02.677Z,65.71
2019-06-20T06:12:02.653Z,66.80
2019-06-20T06:13:03.057Z,66.01
2019-06-20T06:14:02.646Z,66.53
2019-06-20T06:15:02.625Z,66.64
2019-06-20T06:16:02.619Z,67.03
2019-06-20T06:17:03.604Z,67.77
2019-06-20T06:18:02.653Z,70.45
2019-06-20T06:19:02.594Z,73.38
2019-06-20T06:20:02.567Z,73.61
2019-06-20T06:21:02.556Z,75.74
2019-06-20T06:22:02.563Z,77.38
2019-06-20T06:23:02.542Z,77.88
2019-06-20T06:24:02.551Z,78.68
2019-06-20T06:25:02.515Z,79.58
2019-06-20T06:26:02.516Z,81.25
2019-06-20T06:27:02.515Z,83.25
2019-06-20T06:28:02.478Z,83.59
2019-06-20T06:29:02.473Z,84.09
2019-06-20T06:30:02.472Z,85.13
2019-06-20T06:31:02.469Z,83.77
2019-06-20T06:32:02.472Z,83.91
2019-06-20T06:33:02.425Z,84.41
2019-06-20T06:34:02.417Z,85.05
2019-06-20T06:35:02.421Z,85.35
2019-06-20T06:36:02.401Z,86.40
2019-06-20T06:37:02.383Z,87.05
2019-06-20T06:38:02.376Z,87.16
2019-06-20T06:39:02.365Z,87.80
2019-06-20T06:40:02.381Z,86.69
2019-06-20T06:41:02.345Z,85.99
2019-06-20T06:42:02.326Z,85.55
2019-06-20T06:43:02.319Z,85.15
2019-06-20T06:44:02.312Z,83.25
2019-06-20T06:45:02.294Z,83.75
2019-06-20T06:46:02.297Z,83.71
2019-06-20T06:47:02.272Z,84.01
2019-06-20T06:48:02.274Z,83.71
2019-06-20T06:49:02.250Z,83.41
2019-06-20T06:50:02.259Z,83.31
2019-06-20T06:51:02.269Z,83.51
2019-06-20T06:52:02.224Z,83.71
2019-06-20T06:53:02.210Z,83.67
2019-06-20T06:54:02.200Z,82.87
2019-06-20T06:55:02.186Z,82.77
2019-06-20T06:56:02.175Z,80.77
2019-06-20T06:57:02.171Z,81.67
2019-06-20T06:58:02.158Z,81.67
2019-06-20T06:59:02.154Z,81.57
2019-06-20T07:00:02.354Z,80.73
2019-06-20T07:01:02.226Z,81.03
2019-06-20T07:02:02.178Z,81.39
2019-06-20T07:03:02.109Z,81.29
2019-06-20T07:04:02.093Z,79.89
2019-06-20T07:05:02.183Z,79.69
2019-06-20T07:06:02.114Z,79.75
2019-06-20T07:07:02.066Z,79.35
2019-06-20T07:08:02.054Z,79.55
2019-06-20T07:09:02.034Z,79.91
2019-06-20T07:10:02.027Z,79.46
2019-06-20T07:11:02.027Z,78.96
2019-06-20T07:12:02.063Z,78.72
2019-06-20T07:13:01.995Z,78.31
2019-06-20T07:14:02.025Z,77.82
2019-06-20T07:15:01.975Z,77.62
2019-06-20T07:16:01.973Z,77.32
2019-06-20T07:17:01.945Z,77.62
2019-06-20T07:18:01.945Z,76.02
2019-06-20T07:19:01.952Z,76.38
2019-06-20T07:20:01.913Z,76.28
2019-06-20T07:21:01.940Z,76.88
2019-06-20T07:22:01.999Z,76.34
2019-06-20T07:23:01.884Z,75.95
2019-06-20T07:24:01.877Z,75.95
2019-06-20T07:25:01.866Z,75.55
2019-06-20T07:26:01.848Z,74.95
2019-06-20T07:27:01.836Z,74.55
2019-06-20T07:28:01.828Z,74.91
2019-06-20T07:29:01.819Z,75.35
2019-06-20T07:30:01.814Z,74.29
2019-06-20T07:31:01.797Z,75.55
2019-06-20T07:32:01.791Z,75.35
2019-06-20T07:33:01.771Z,75.25
2019-06-20T07:34:01.765Z,75.25
2019-06-20T07:35:01.810Z,74.98
2019-06-20T07:36:01.740Z,75.25
2019-06-20T07:37:01.735Z,73.75
2019-06-20T07:38:01.714Z,73.95
2019-06-20T07:39:01.708Z,74.21
2019-06-20T07:40:01.710Z,74.05
2019-06-20T07:41:01.699Z,75.01
2019-06-20T07:42:01.710Z,75.41
2019-06-20T07:43:01.665Z,75.71
2019-06-20T07:44:01.651Z,74.91
2019-06-20T07:45:01.640Z,75.31
2019-06-20T07:46:03.225Z,74.51
2019-06-20T07:47:16.580Z,73.82
2019-06-20T07:48:02.618Z,72.02
2019-06-20T07:49:01.603Z,73.32
2019-06-20T07:50:01.582Z,73.22
2019-06-20T07:51:01.593Z,73.32
2019-06-20T07:52:01.771Z,73.82
2019-06-20T07:53:02.894Z,73.91
2019-06-20T07:54:01.548Z,73.82
2019-06-20T07:55:01.541Z,73.61
2019-06-20T07:56:01.553Z,72.38
2019-06-20T07:57:01.512Z,72.28
2019-06-20T07:58:01.493Z,72.19
2019-06-20T07:59:01.484Z,73.58
2019-06-20T08:00:01.474Z,73.28
2019-06-20T08:01:01.467Z,73.14
2019-06-20T08:02:01.464Z,73.35
2019-06-20T08:03:01.450Z,73.55
2019-06-20T08:04:01.432Z,73.74
2019-06-20T08:05:01.422Z,72.75
2019-06-20T08:06:01.425Z,73.51
2019-06-20T08:07:01.443Z,72.11
2019-06-20T08:08:01.390Z,72.11
2019-06-20T08:09:01.382Z,72.02
2019-06-20T08:10:01.377Z,71.92
2019-06-20T08:11:01.354Z,71.88
2019-06-20T08:12:01.348Z,72.18
2019-06-20T08:13:01.334Z,71.98
2019-06-20T08:14:01.335Z,71.65
2019-06-20T08:15:14.550Z,70.72
2019-06-20T08:16:03.800Z,70.32
2019-06-20T08:17:01.290Z,70.48
2019-06-20T08:18:01.317Z,70.09
2019-06-20T08:19:01.285Z,69.46
2019-06-20T08:20:01.260Z,69.16
2019-06-20T08:21:01.249Z,68.66
2019-06-20T08:22:01.242Z,68.96
2019-06-20T08:23:01.236Z,69.16
2019-06-20T08:24:01.221Z,68.57
2019-06-20T08:25:01.200Z,68.16
2019-06-20T08:26:02.445Z,66.97
2019-06-20T08:27:03.067Z,66.55
2019-06-20T08:28:02.426Z,66.18
2019-06-20T08:29:16.610Z,66.25
2019-06-20T08:30:03.476Z,66.25
2019-06-20T08:31:02.450Z,65.82
2019-06-20T08:32:02.674Z,64.79
2019-06-20T08:33:03.558Z,62.55
2019-06-20T08:34:02.274Z,61.70
2019-06-20T08:35:02.430Z,64.17
2019-06-20T08:36:02.194Z,62.66
2019-06-20T08:37:02.378Z,62.66
2019-06-20T08:38:01.855Z,62.73
2019-06-20T08:39:02.548Z,60.16
2019-06-20T08:40:02.180Z,59.63
2019-06-20T08:41:02.096Z,58.94
2019-06-20T08:42:02.111Z,59.01
2019-06-20T08:43:02.139Z,58.49
2019-06-20T08:44:01.763Z,58.69
2019-06-20T08:45:01.789Z,57.28
2019-06-20T08:46:01.737Z,57.30
2019-06-20T08:47:02.284Z,57.01
2019-06-20T08:48:02.415Z,57.50
2019-06-20T08:49:01.472Z,57.20
2019-06-20T08:50:01.525Z,56.71
2019-06-20T08:51:02.188Z,57.13
2019-06-20T08:52:01.236Z,57.50
2019-06-20T08:53:01.648Z,57.01
2019-06-20T08:54:01.255Z,57.50
2019-06-20T08:55:01.114Z,57.57
2019-06-20T08:56:01.014Z,57.50
2019-06-20T08:57:00.906Z,57.53
2019-06-20T08:58:01.606Z,57.50
2019-06-20T08:59:00.848Z,56.16
2019-06-20T09:00:00.829Z,57.50
2019-06-20T09:03:00.818Z,58.42
2019-06-20T09:04:03.813Z,58.51
2019-06-20T09:09:02.340Z,58.43
2019-06-20T09:10:01.961Z,58.86
2019-06-20T09:11:01.759Z,58.98
2019-06-20T09:12:00.703Z,60.57
2019-06-20T09:13:01.408Z,59.88
2019-06-20T09:14:01.493Z,60.27
2019-06-20T09:15:01.180Z,60.07
2019-06-20T09:16:00.939Z,60.57
2019-06-20T09:17:00.781Z,60.47
2019-06-20T09:18:00.768Z,60.17
2019-06-20T09:19:00.637Z,60.37
2019-06-20T09:20:00.612Z,61.56
2019-06-20T09:21:00.609Z,60.74
2019-06-20T09:22:00.619Z,60.44
2019-06-20T09:23:01.102Z,59.84
2019-06-20T09:24:00.570Z,59.94
2019-06-20T09:25:00.888Z,58.59
2019-06-20T09:26:01.891Z,60.00
2019-06-20T09:27:00.585Z,60.50
2019-06-20T09:28:00.548Z,61.12
2019-06-20T09:29:00.516Z,61.12
2019-06-20T09:30:00.616Z,61.62
2019-06-20T09:31:00.494Z,60.33
2019-06-20T09:32:00.504Z,60.93
2019-06-20T09:33:00.483Z,62.31
2019-06-20T09:34:03.694Z,63.01
2019-06-20T09:35:00.465Z,63.01
2019-06-20T09:36:00.445Z,62.41
2019-06-20T09:37:00.435Z,62.38
2019-06-20T09:38:00.427Z,61.59
2019-06-20T09:39:00.416Z,60.80
2019-06-20T09:40:00.407Z,60.50
2019-06-20T09:41:00.391Z,61.29
2019-06-20T09:42:00.383Z,61.16
2019-06-20T09:43:00.369Z,60.80
2019-06-20T09:44:00.358Z,60.70
2019-06-20T09:45:00.388Z,60.89
2019-06-20T09:46:00.349Z,61.29
2019-06-20T09:47:00.327Z,60.50
2019-06-20T09:48:00.322Z,60.99
2019-06-20T09:49:00.303Z,60.30
2019-06-20T09:50:00.291Z,59.91
2019-06-20T09:51:00.322Z,59.93
2019-06-20T09:52:00.276Z,62.02
2019-06-20T09:53:00.268Z,60.93
2019-06-20T09:54:00.262Z,61.72
2019-06-20T09:55:00.248Z,62.41
2019-06-20T09:56:00.238Z,60.53
2019-06-20T09:57:00.234Z,60.40
2019-06-20T09:58:00.217Z,60.10
2019-06-20T09:59:00.204Z,59.93
2019-06-20T10:00:09.784Z,61.22
2019-06-20T10:01:01.208Z,60.30
2019-06-20T10:02:00.173Z,57.90
2019-06-20T10:03:00.168Z,57.75
2019-06-20T10:04:00.144Z,55.52
2019-06-20T10:05:00.147Z,56.02
2019-06-20T10:06:00.346Z,54.48
2019-06-20T10:07:00.167Z,54.31
2019-06-20T10:08:00.119Z,54.97
2019-06-20T10:09:00.117Z,55.27
2019-06-20T10:10:00.096Z,52.61
2019-06-20T10:11:00.081Z,54.09
2019-06-20T10:12:00.068Z,53.74
2019-06-20T10:13:00.062Z,54.01
2019-06-20T10:14:00.043Z,53.78
2019-06-20T10:15:00.031Z,53.49
2019-06-20T10:16:00.018Z,51.99
2019-06-20T10:17:00.019Z,50.78
2019-06-20T10:18:00.013Z,49.65
2019-06-20T10:18:59.987Z,49.31
2019-06-20T10:19:59.979Z,49.01
2019-06-20T10:20:59.969Z,49.58
2019-06-20T10:21:59.970Z,48.65
2019-06-20T10:22:59.985Z,48.03
2019-06-20T10:23:59.933Z,47.50
2019-06-20T10:24:59.928Z,46.13
2019-06-20T10:25:59.919Z,45.66
2019-06-20T10:26:59.908Z,46.08
2019-06-20T10:27:59.891Z,44.68
2019-06-20T10:28:59.909Z,45.25
2019-06-20T10:30:13.368Z,43.98
2019-06-20T10:31:00.868Z,43.95
2019-06-20T10:31:59.857Z,44.13
2019-06-20T10:32:59.847Z,42.95
2019-06-20T10:33:59.845Z,42.93
2019-06-20T10:34:59.829Z,43.40
2019-06-20T10:35:59.821Z,42.64
2019-06-20T10:36:59.808Z,42.46
2019-06-20T10:37:59.791Z,42.95
2019-06-20T10:38:59.822Z,43.69
2019-06-20T10:39:59.771Z,44.16
2019-06-20T10:41:00.170Z,42.75
2019-06-20T10:41:59.759Z,42.48
2019-06-20T10:42:59.748Z,44.01
2019-06-20T10:43:59.731Z,44.71
2019-06-20T10:44:59.748Z,44.34
2019-06-20T10:45:59.720Z,44.76
2019-06-20T10:46:59.707Z,45.17
2019-06-20T10:47:59.735Z,45.19
2019-06-20T10:48:59.690Z,46.71
2019-06-20T10:49:59.677Z,47.39
2019-06-20T10:50:59.730Z,48.21
2019-06-20T10:51:59.652Z,47.71
2019-06-20T10:52:59.642Z,47.64
2019-06-20T10:53:59.634Z,47.44
2019-06-20T10:54:59.627Z,48.23
2019-06-20T10:55:59.614Z,47.56
2019-06-20T10:56:59.608Z,47.74
2019-06-20T10:57:59.621Z,47.54
2019-06-20T10:58:59.589Z,48.33
2019-06-20T10:59:59.581Z,48.62
2019-06-20T11:00:59.559Z,49.82
2019-06-20T11:01:59.548Z,49.53
2019-06-20T11:02:59.538Z,49.51
2019-06-20T11:03:59.533Z,49.43
2019-06-20T11:04:59.531Z,48.65
2019-06-20T11:05:59.515Z,46.20
2019-06-20T11:06:59.499Z,45.17
2019-06-20T11:07:59.498Z,44.81
2019-06-20T11:08:59.481Z,44.89
2019-06-20T11:09:59.495Z,44.35
2019-06-20T11:10:59.462Z,43.65
2019-06-20T11:11:59.453Z,43.95
2019-06-20T11:12:59.444Z,42.55
2019-06-20T11:13:59.442Z,42.75
2019-06-20T11:14:59.422Z,42.65
2019-06-20T11:15:59.419Z,42.46
2019-06-20T11:16:59.403Z,42.55
2019-06-20T11:17:59.392Z,43.07
2019-06-20T11:18:59.375Z,42.46
2019-06-20T11:19:59.370Z,42.24
2019-06-20T11:20:59.368Z,41.73
2019-06-20T11:21:59.351Z,40.78
2019-06-20T11:22:59.354Z,41.67
2019-06-20T11:23:59.326Z,41.66
2019-06-20T11:24:59.320Z,41.75
2019-06-20T11:25:59.314Z,41.95
2019-06-20T11:26:59.302Z,40.97
2019-06-20T11:27:59.291Z,39.82
2019-06-20T11:28:59.284Z,40.19
2019-06-20T11:29:59.271Z,40.19
2019-06-20T11:31:00.702Z,40.41
2019-06-20T11:31:59.246Z,40.29
2019-06-20T11:32:59.245Z,40.76
2019-06-20T11:33:59.239Z,42.02
2019-06-20T11:34:59.216Z,40.56
2019-06-20T11:35:59.213Z,41.63
2019-06-20T11:36:59.197Z,40.95
2019-06-20T11:37:59.287Z,40.47
2019-06-20T11:38:59.222Z,40.64
2019-06-20T11:39:59.170Z,39.28
2019-06-20T11:40:59.157Z,39.98
2019-06-20T11:41:59.148Z,40.95
2019-06-20T11:42:59.148Z,38.82
2019-06-20T11:43:59.133Z,39.33
2019-06-20T11:44:59.127Z,40.31
2019-06-20T11:45:59.107Z,40.97
2019-06-20T11:46:59.104Z,40.39
2019-06-20T11:47:59.097Z,40.53
2019-06-20T11:48:59.088Z,39.55
2019-06-20T11:49:59.073Z,40.82
2019-06-20T11:50:59.065Z,40.94
2019-06-20T11:51:59.081Z,42.25
2019-06-20T11:52:59.051Z,42.74
2019-06-20T11:53:59.032Z,41.88
2019-06-20T11:54:59.024Z,42.88
2019-06-20T11:55:59.017Z,42.78
2019-06-20T11:56:59.002Z,43.09
2019-06-20T11:57:59.014Z,44.05
2019-06-20T11:58:58.985Z,41.80
2019-06-20T11:59:58.976Z,42.99
2019-06-20T12:01:03.827Z,42.94
2019-06-20T12:01:59.956Z,44.70
2019-06-20T12:02:58.940Z,44.41
2019-06-20T12:03:58.941Z,45.70
2019-06-20T12:04:58.919Z,45.21
2019-06-20T12:05:58.920Z,45.90
2019-06-20T12:06:58.911Z,45.12
2019-06-20T12:07:58.890Z,44.35
2019-06-20T12:08:58.879Z,45.24
2019-06-20T12:09:58.872Z,45.65
2019-06-20T12:10:58.858Z,45.34
2019-06-20T12:11:58.851Z,44.26
2019-06-20T12:12:58.849Z,44.16
2019-06-20T12:13:58.839Z,44.60
2019-06-20T12:14:58.833Z,44.48
2019-06-20T12:15:58.806Z,43.37
2019-06-20T12:16:58.801Z,42.60
2019-06-20T12:17:58.824Z,42.02
2019-06-20T12:18:58.786Z,42.62
2019-06-20T12:19:58.766Z,42.52
2019-06-20T12:20:58.756Z,42.50
2019-06-20T12:21:58.747Z,42.17
2019-06-20T12:22:58.736Z,42.72
2019-06-20T12:23:58.754Z,43.55
2019-06-20T12:24:58.718Z,44.87
2019-06-20T12:25:58.705Z,44.47
2019-06-20T12:26:58.694Z,44.33
2019-06-20T12:27:58.718Z,45.04
2019-06-20T12:28:58.679Z,45.41
2019-06-20T12:29:58.668Z,44.78
2019-06-20T12:30:58.652Z,45.15
2019-06-20T12:31:59.158Z,45.03
2019-06-20T12:32:58.634Z,44.42
2019-06-20T12:33:58.644Z,43.79
2019-06-20T12:34:58.629Z,41.70
2019-06-20T12:35:58.608Z,40.82
2019-06-20T12:36:58.592Z,41.09
2019-06-20T12:37:58.587Z,41.31
2019-06-20T12:38:58.599Z,41.31
2019-06-20T12:39:58.689Z,40.92
2019-06-20T12:40:58.551Z,40.23
2019-06-20T12:41:58.565Z,41.23
2019-06-20T12:42:58.531Z,40.25
2019-06-20T12:43:58.521Z,40.64
2019-06-20T12:44:58.531Z,40.56
2019-06-20T12:45:58.509Z,40.94
2019-06-20T12:46:58.496Z,38.98
2019-06-20T12:47:58.486Z,39.45
2019-06-20T12:48:58.484Z,38.84
2019-06-20T12:49:58.466Z,38.43
2019-06-20T12:50:58.522Z,38.73
2019-06-20T12:51:58.444Z,39.29
2019-06-20T12:52:58.444Z,40.08
2019-06-20T12:53:58.426Z,38.22
2019-06-20T12:54:58.410Z,37.65
2019-06-20T12:55:58.412Z,37.81
2019-06-20T12:56:58.400Z,39.18
2019-06-20T12:57:58.392Z,37.91